ENML/MOL METAR and TAF weather

Enter ICAO airport designator
Station Type Date Time Source
ENML METAR 2024/06/14 03:20 UTC NOAA

ENML 140320Z AUTO 34005KT 9999NDV OVC021/// 11/09 Q1009


Station Type Date Time Source
ENML Decoded METAR 2024/06/14 03:20 UTC NOAA

Molde / Aro, Norway (ENML) 62-45N 007-16E 3M
Jun 13, 2024 - 11:20 PM EDT / 2024.06.14 0320 UTC
Wind: from the NNW (340 degrees) at 6 MPH (5 KT):0
Sky conditions: overcast
Temperature: 51 F (11 C)
Dew Point: 48 F (9 C)
Relative Humidity: 87%
Pressure (altimeter): 29.80 in. Hg (1009 hPa)
ob: ENML 140320Z AUTO 34005KT 9999NDV OVC021/// 11/09 Q1009
cycle: 3

Station Type Date Time Source
ENML TAF 2024/03/07 15:40 UTC NOAA